Time;durP1;ratioP1;P1;durP2;ratioP2;P2;SDS_P1;SDS_P2;PMS_P1;PMS_P2;Temp;Humidity;BMP_temperature;BMP_pressure;BME280_temperature;BME280_humidity;BME280_pressure;Samples;Min_cycle;Max_cycle;Signal;HPM_P1;HPM_P2
2023/12/06 00:00:51;;;;;;;;;;;15.20;52.00;;;;;;10321383;28;94274;-46
2023/12/06 00:05:53;;;;;;;;;;;15.20;51.80;;;;;;10304666;28;93630;-47
2023/12/06 00:10:55;;;;;;;;;;;15.20;51.60;;;;;;10327781;28;93738;-46
2023/12/06 00:15:57;;;;;;;;;;;15.20;51.70;;;;;;10328437;28;93854;-49
2023/12/06 00:20:59;;;;;;;;;;;15.20;52.10;;;;;;10327222;28;93624;-50
2023/12/06 00:26:01;;;;;;;;;;;15.10;52.60;;;;;;10316419;28;94566;-49
2023/12/06 00:31:03;;;;;;;;;;;15.10;52.60;;;;;;10316348;28;95982;-48
2023/12/06 00:36:04;;;;;;;;;;;15.20;52.40;;;;;;10327006;28;93631;-46
2023/12/06 00:41:06;;;;;;;;;;;15.20;52.20;;;;;;10326270;28;93405;-50
2023/12/06 00:46:08;;;;;;;;;;;15.20;52.00;;;;;;10325595;28;93387;-47
2023/12/06 00:51:10;;;;;;;;;;;15.20;51.90;;;;;;10307059;28;92999;-46
2023/12/06 00:56:13;;;;;;;;;;;15.10;51.80;;;;;;10324373;28;93763;-49
2023/12/06 01:01:15;;;;;;;;;;;15.10;51.80;;;;;;10322695;28;93962;-46
2023/12/06 01:06:17;;;;;;;;;;;15.10;51.80;;;;;;10307729;28;93092;-50
2023/12/06 01:11:19;;;;;;;;;;;15.10;51.80;;;;;;10322412;28;93709;-46
2023/12/06 01:16:21;;;;;;;;;;;15.20;52.10;;;;;;10321566;28;94469;-51
2023/12/06 01:21:23;;;;;;;;;;;15.10;52.40;;;;;;10319641;28;96655;-46
2023/12/06 01:26:24;;;;;;;;;;;15.20;52.40;;;;;;10299441;28;93151;-46
2023/12/06 01:31:27;;;;;;;;;;;15.10;52.30;;;;;;10315795;28;94195;-48
2023/12/06 01:36:29;;;;;;;;;;;15.10;52.20;;;;;;10325255;28;94237;-47
2023/12/06 01:41:31;;;;;;;;;;;15.10;52.20;;;;;;10307410;28;94473;-46
2023/12/06 01:46:33;;;;;;;;;;;15.20;52.10;;;;;;10307449;28;92945;-47
2023/12/06 01:51:35;;;;;;;;;;;15.20;51.90;;;;;;10319721;28;94760;-46
2023/12/06 01:56:37;;;;;;;;;;;15.10;51.70;;;;;;10315251;28;92828;-51
2023/12/06 02:06:59;;;;;;;;;;;15.10;51.70;;;;;;9988937;22;94702;-48
2023/12/06 02:12:01;;;;;;;;;;;15.10;52.20;;;;;;10176867;28;96322;-47
2023/12/06 02:17:04;;;;;;;;;;;15.00;52.60;;;;;;10189079;28;93744;-45
2023/12/06 02:22:06;;;;;;;;;;;15.10;52.50;;;;;;10180189;28;93924;-48
2023/12/06 02:27:08;;;;;;;;;;;15.10;52.30;;;;;;10198490;28;94728;-49
2023/12/06 02:32:10;;;;;;;;;;;15.20;52.10;;;;;;10188233;28;93476;-48
2023/12/06 02:37:13;;;;;;;;;;;15.20;52.00;;;;;;10190930;28;94425;-46
2023/12/06 02:42:14;;;;;;;;;;;15.10;51.80;;;;;;10196869;28;94276;-47
2023/12/06 02:47:16;;;;;;;;;;;15.10;51.80;;;;;;10196918;28;92466;-46
2023/12/06 02:52:18;;;;;;;;;;;15.10;51.80;;;;;;10183371;28;94595;-47
2023/12/06 02:57:20;;;;;;;;;;;15.10;51.60;;;;;;10160887;28;95292;-50
2023/12/06 03:02:22;;;;;;;;;;;15.20;51.70;;;;;;10177193;28;96255;-47
2023/12/06 03:07:24;;;;;;;;;;;15.10;52.00;;;;;;10172697;28;94470;-45
2023/12/06 03:12:26;;;;;;;;;;;15.10;52.30;;;;;;10181686;28;94485;-48
2023/12/06 03:17:28;;;;;;;;;;;15.10;52.40;;;;;;10166923;28;94638;-47
2023/12/06 03:22:30;;;;;;;;;;;15.10;52.60;;;;;;10169948;28;94563;-47
2023/12/06 03:27:32;;;;;;;;;;;15.10;52.80;;;;;;10185021;28;94666;-46
2023/12/06 03:32:33;;;;;;;;;;;15.10;52.70;;;;;;10192058;28;94458;-51
2023/12/06 03:37:35;;;;;;;;;;;15.10;52.70;;;;;;10185362;28;94105;-47
2023/12/06 03:42:37;;;;;;;;;;;15.10;52.70;;;;;;10190476;28;94800;-73
2023/12/06 03:47:39;;;;;;;;;;;15.10;52.80;;;;;;10185743;28;94960;-49
2023/12/06 03:52:41;;;;;;;;;;;15.00;52.80;;;;;;10191112;28;95905;-50
2023/12/06 03:57:42;;;;;;;;;;;15.00;53.00;;;;;;10193012;28;94163;-47
2023/12/06 04:02:44;;;;;;;;;;;15.10;53.10;;;;;;10182153;28;94200;-47
2023/12/06 04:07:46;;;;;;;;;;;15.10;53.00;;;;;;10193845;28;93621;-48
2023/12/06 04:12:48;;;;;;;;;;;15.10;53.00;;;;;;10189976;28;94727;-50
2023/12/06 04:17:50;;;;;;;;;;;15.10;53.10;;;;;;10187082;28;94056;-48
2023/12/06 04:22:52;;;;;;;;;;;15.00;53.10;;;;;;10196275;28;94408;-50
2023/12/06 04:27:54;;;;;;;;;;;15.00;53.20;;;;;;10186263;28;92715;-49
2023/12/06 04:32:56;;;;;;;;;;;15.10;53.30;;;;;;10202562;28;93548;-46
2023/12/06 04:37:58;;;;;;;;;;;15.10;53.20;;;;;;10199982;28;93188;-49
2023/12/06 04:43:01;;;;;;;;;;;15.10;53.20;;;;;;10187664;28;95867;-46
2023/12/06 04:48:04;;;;;;;;;;;15.00;53.20;;;;;;10189414;28;93759;-50
2023/12/06 04:53:06;;;;;;;;;;;15.00;53.20;;;;;;10191173;28;94738;-49
2023/12/06 04:58:08;;;;;;;;;;;15.00;53.40;;;;;;10194649;28;93565;-48
2023/12/06 05:03:10;;;;;;;;;;;15.00;53.40;;;;;;10177871;28;93666;-47
2023/12/06 05:08:12;;;;;;;;;;;15.10;53.40;;;;;;10193608;28;94139;-47
2023/12/06 05:13:14;;;;;;;;;;;15.10;53.40;;;;;;10187664;28;94731;-50
2023/12/06 05:18:16;;;;;;;;;;;15.10;53.50;;;;;;10174566;28;93837;-47
2023/12/06 05:23:18;;;;;;;;;;;15.00;53.50;;;;;;10179368;28;93620;-49
2023/12/06 05:28:20;;;;;;;;;;;15.00;53.60;;;;;;10194594;28;93500;-61
2023/12/06 05:33:22;;;;;;;;;;;15.00;53.60;;;;;;10199908;28;97220;-51
2023/12/06 05:38:24;;;;;;;;;;;15.10;53.70;;;;;;10203164;28;93461;-50
2023/12/06 05:43:26;;;;;;;;;;;15.10;53.70;;;;;;10195213;28;94440;-47
2023/12/06 05:48:27;;;;;;;;;;;15.10;53.70;;;;;;10178740;28;93593;-47
2023/12/06 05:53:30;;;;;;;;;;;15.20;53.70;;;;;;10194104;28;95399;-51
2023/12/06 05:58:32;;;;;;;;;;;15.50;53.50;;;;;;10188228;28;94851;-61
2023/12/06 06:03:34;;;;;;;;;;;15.70;53.20;;;;;;10188318;28;93729;-48
2023/12/06 06:08:36;;;;;;;;;;;15.90;52.90;;;;;;10192535;28;94007;-49
2023/12/06 06:13:38;;;;;;;;;;;16.00;52.70;;;;;;10177607;28;93894;-49
2023/12/06 06:18:40;;;;;;;;;;;16.10;52.60;;;;;;10180323;28;93459;-48
2023/12/06 06:23:45;;;;;;;;;;;16.10;52.50;;;;;;10181038;28;96784;-49
2023/12/06 06:28:48;;;;;;;;;;;16.10;52.50;;;;;;10179837;28;95264;-47
2023/12/06 06:33:50;;;;;;;;;;;16.10;53.10;;;;;;10191562;28;92945;-51
2023/12/06 06:38:52;;;;;;;;;;;16.20;53.50;;;;;;10183412;28;94503;-49
2023/12/06 06:43:54;;;;;;;;;;;16.20;53.10;;;;;;10189452;28;93319;-47
2023/12/06 06:48:56;;;;;;;;;;;16.30;52.80;;;;;;10190626;28;93954;-48
2023/12/06 06:53:58;;;;;;;;;;;16.50;52.70;;;;;;10194139;28;93956;-48
2023/12/06 06:59:00;;;;;;;;;;;16.60;52.50;;;;;;10195757;28;95014;-46
2023/12/06 07:04:01;;;;;;;;;;;16.60;52.40;;;;;;10195695;28;93860;-48
2023/12/06 07:09:04;;;;;;;;;;;16.60;52.50;;;;;;10190390;28;94379;-49
2023/12/06 07:14:06;;;;;;;;;;;16.50;52.50;;;;;;10183900;28;95958;-47
2023/12/06 07:19:07;;;;;;;;;;;16.40;52.60;;;;;;10187597;28;93528;-47
2023/12/06 07:24:09;;;;;;;;;;;16.30;52.70;;;;;;10174589;28;95015;-50
2023/12/06 07:29:12;;;;;;;;;;;16.20;52.80;;;;;;10181671;28;94789;-51
2023/12/06 07:34:17;;;;;;;;;;;16.10;53.00;;;;;;10182055;28;93320;-51
2023/12/06 07:39:24;;;;;;;;;;;16.00;53.10;;;;;;10167903;28;93572;-50
2023/12/06 07:44:26;;;;;;;;;;;15.90;53.30;;;;;;10166136;28;93592;-50
2023/12/06 07:49:28;;;;;;;;;;;15.90;53.50;;;;;;10167545;28;93486;-51
2023/12/06 07:54:30;;;;;;;;;;;15.80;53.60;;;;;;10174376;28;94554;-50
2023/12/06 07:59:31;;;;;;;;;;;15.70;53.70;;;;;;10174664;28;94577;-49
2023/12/06 08:04:33;;;;;;;;;;;15.60;53.90;;;;;;10185622;28;96864;-49
2023/12/06 08:09:35;;;;;;;;;;;15.50;54.00;;;;;;10198586;28;94620;-48
2023/12/06 08:14:39;;;;;;;;;;;15.50;54.20;;;;;;10183718;28;94304;-49
2023/12/06 08:19:41;;;;;;;;;;;15.40;54.40;;;;;;10180502;28;94130;-49
2023/12/06 08:24:43;;;;;;;;;;;15.30;54.60;;;;;;10186294;28;93425;-52
2023/12/06 08:29:45;;;;;;;;;;;15.30;54.60;;;;;;10176910;28;94728;-50
2023/12/06 08:34:46;;;;;;;;;;;15.20;54.80;;;;;;10186087;28;92833;-47
2023/12/06 08:39:49;;;;;;;;;;;15.20;54.90;;;;;;10187251;28;93695;-47
2023/12/06 08:44:53;;;;;;;;;;;15.10;54.90;;;;;;10183709;28;93553;-47
2023/12/06 08:49:58;;;;;;;;;;;15.10;56.20;;;;;;10190361;28;93548;-48
2023/12/06 08:55:00;;;;;;;;;;;15.00;55.40;;;;;;10196510;28;96299;-47
2023/12/06 09:00:03;;;;;;;;;;;15.00;55.30;;;;;;10173929;28;93476;-48
2023/12/06 09:05:06;;;;;;;;;;;14.90;55.40;;;;;;10189390;28;94580;-52
2023/12/06 09:10:08;;;;;;;;;;;14.90;55.40;;;;;;10184369;28;94463;-48
2023/12/06 09:15:10;;;;;;;;;;;14.90;55.40;;;;;;10193996;28;94693;-50
2023/12/06 09:20:12;;;;;;;;;;;14.90;55.40;;;;;;10190658;28;94517;-48
2023/12/06 09:25:15;;;;;;;;;;;14.80;55.30;;;;;;10171591;28;94163;-51
2023/12/06 09:30:17;;;;;;;;;;;14.90;55.30;;;;;;10189113;28;92782;-68
2023/12/06 09:35:19;;;;;;;;;;;14.90;55.10;;;;;;10199989;28;93537;-46
2023/12/06 09:40:22;;;;;;;;;;;14.90;55.00;;;;;;10201122;28;98270;-47
2023/12/06 09:45:24;;;;;;;;;;;14.90;55.00;;;;;;10182057;28;96190;-48
2023/12/06 09:50:26;;;;;;;;;;;15.00;55.00;;;;;;10185901;28;93504;-47
2023/12/06 09:55:35;;;;;;;;;;;14.90;55.00;;;;;;10193979;28;94221;-48
2023/12/06 10:00:37;;;;;;;;;;;14.90;55.10;;;;;;10200031;28;93437;-51
2023/12/06 10:05:38;;;;;;;;;;;14.80;55.20;;;;;;10201467;28;93666;-49
2023/12/06 10:10:41;;;;;;;;;;;14.80;55.20;;;;;;10193371;28;93282;-50
2023/12/06 10:15:43;;;;;;;;;;;14.90;55.30;;;;;;10177108;28;93717;-51
2023/12/06 10:20:45;;;;;;;;;;;14.90;55.20;;;;;;10158610;28;94059;-49
2023/12/06 10:25:50;;;;;;;;;;;14.90;55.10;;;;;;10180904;28;94119;-52
2023/12/06 10:31:01;;;;;;;;;;;15.00;55.10;;;;;;10189139;28;94523;-49
2023/12/06 10:36:04;;;;;;;;;;;15.00;55.10;;;;;;10170685;28;97014;-47
2023/12/06 10:41:06;;;;;;;;;;;14.90;55.00;;;;;;10165534;28;92633;-48
2023/12/06 10:46:08;;;;;;;;;;;14.90;55.10;;;;;;10164675;28;94463;-47
2023/12/06 10:51:10;;;;;;;;;;;14.90;55.20;;;;;;10179667;28;95159;-49
2023/12/06 10:56:14;;;;;;;;;;;14.90;55.20;;;;;;10201165;28;94612;-48
2023/12/06 11:01:16;;;;;;;;;;;14.80;55.40;;;;;;10183031;28;93873;-50
2023/12/06 11:06:40;;;;;;;;;;;14.80;55.60;;;;;;10199420;28;93430;-47
2023/12/06 11:11:51;;;;;;;;;;;14.80;55.70;;;;;;10185850;28;93746;-52
2023/12/06 11:17:12;;;;;;;;;;;14.70;55.90;;;;;;10172076;28;94430;-51
2023/12/06 11:22:14;;;;;;;;;;;14.70;56.50;;;;;;10191686;28;95066;-52
2023/12/06 11:27:16;;;;;;;;;;;14.70;56.10;;;;;;10173764;28;97373;-51
2023/12/06 11:32:18;;;;;;;;;;;14.70;55.90;;;;;;10177262;28;93671;-48
2023/12/06 11:37:22;;;;;;;;;;;14.70;55.80;;;;;;10183516;28;94707;-50
2023/12/06 11:42:24;;;;;;;;;;;14.80;55.80;;;;;;10180016;28;93400;-50
2023/12/06 11:47:26;;;;;;;;;;;14.90;55.70;;;;;;10177505;28;94480;-47
2023/12/06 11:52:29;;;;;;;;;;;14.90;55.40;;;;;;10185113;28;93516;-50
2023/12/06 11:57:30;;;;;;;;;;;15.00;55.40;;;;;;10193128;28;93980;-51
2023/12/06 12:02:32;;;;;;;;;;;15.00;55.30;;;;;;10185162;28;93661;-51
2023/12/06 12:07:35;;;;;;;;;;;15.00;55.30;;;;;;10192025;28;93628;-47
2023/12/06 12:12:37;;;;;;;;;;;15.00;55.30;;;;;;10177244;28;93170;-48
2023/12/06 12:17:39;;;;;;;;;;;15.00;55.30;;;;;;10200257;28;96969;-51
2023/12/06 12:22:51;;;;;;;;;;;15.00;55.30;;;;;;10184178;28;93788;-48
2023/12/06 12:27:53;;;;;;;;;;;14.90;55.40;;;;;;10186848;28;93388;-48
2023/12/06 12:32:54;;;;;;;;;;;14.90;55.40;;;;;;10204790;28;93774;-46
2023/12/06 12:37:56;;;;;;;;;;;14.80;55.50;;;;;;10206234;28;94244;-46
2023/12/06 12:42:58;;;;;;;;;;;14.80;55.60;;;;;;10204115;28;93825;-46
2023/12/06 12:48:00;;;;;;;;;;;14.80;55.60;;;;;;10185857;28;93490;-50
2023/12/06 12:53:02;;;;;;;;;;;14.80;55.60;;;;;;10206313;28;92923;-47
2023/12/06 12:58:06;;;;;;;;;;;14.80;55.70;;;;;;10204480;28;94521;-48
2023/12/06 13:03:09;;;;;;;;;;;14.70;55.80;;;;;;10193808;28;94550;-48
2023/12/06 13:08:12;;;;;;;;;;;14.70;55.90;;;;;;10200335;28;95883;-49
2023/12/06 13:13:16;;;;;;;;;;;14.70;55.90;;;;;;10197889;28;94201;-51
2023/12/06 13:18:18;;;;;;;;;;;14.70;55.90;;;;;;10188001;28;93755;-49
2023/12/06 13:23:20;;;;;;;;;;;14.80;55.90;;;;;;10189313;28;93534;-50
2023/12/06 13:28:22;;;;;;;;;;;14.80;55.90;;;;;;10185819;28;94257;-51
2023/12/06 13:33:28;;;;;;;;;;;14.80;55.70;;;;;;10187297;28;94458;-48
2023/12/06 13:38:30;;;;;;;;;;;14.80;55.70;;;;;;10184991;28;93455;-52
2023/12/06 13:43:31;;;;;;;;;;;14.80;55.70;;;;;;10185597;28;93731;-49
2023/12/06 13:48:33;;;;;;;;;;;14.80;55.80;;;;;;10185787;28;94216;-50
2023/12/06 13:53:35;;;;;;;;;;;14.80;55.90;;;;;;10185300;28;93160;-47
2023/12/06 13:58:37;;;;;;;;;;;14.70;55.80;;;;;;10187175;28;95519;-51
2023/12/06 14:03:42;;;;;;;;;;;14.70;56.00;;;;;;10187083;28;93454;-48
2023/12/06 14:08:45;;;;;;;;;;;14.70;56.00;;;;;;10165123;28;94765;-50
2023/12/06 14:13:47;;;;;;;;;;;14.70;56.30;;;;;;10184885;28;94694;-50
2023/12/06 14:18:49;;;;;;;;;;;14.60;56.30;;;;;;10190014;28;93503;-47
2023/12/06 14:23:51;;;;;;;;;;;14.60;56.40;;;;;;10194479;28;94889;-49
2023/12/06 14:28:53;;;;;;;;;;;14.60;56.30;;;;;;10192890;28;94115;-50
2023/12/06 14:33:56;;;;;;;;;;;14.60;56.30;;;;;;10186747;28;92738;-51
2023/12/06 14:38:58;;;;;;;;;;;14.60;56.30;;;;;;10191608;28;94611;-50
2023/12/06 14:44:00;;;;;;;;;;;14.70;56.10;;;;;;10187024;28;94078;-50
2023/12/06 14:49:02;;;;;;;;;;;14.80;55.90;;;;;;10187572;28;96225;-51
2023/12/06 14:54:04;;;;;;;;;;;14.90;55.80;;;;;;10194689;28;97399;-49
2023/12/06 14:59:06;;;;;;;;;;;14.90;55.70;;;;;;10195394;28;94575;-48
2023/12/06 15:04:09;;;;;;;;;;;14.90;55.50;;;;;;10191845;28;94447;-48
2023/12/06 15:09:11;;;;;;;;;;;14.90;55.60;;;;;;10195046;28;94280;-50
2023/12/06 15:14:13;;;;;;;;;;;14.90;55.50;;;;;;10169625;28;93270;-51
2023/12/06 15:19:15;;;;;;;;;;;14.90;55.60;;;;;;10158086;28;94647;-51
2023/12/06 15:24:36;;;;;;;;;;;14.80;55.60;;;;;;10180355;28;93800;-65
2023/12/06 15:29:38;;;;;;;;;;;14.80;55.60;;;;;;10193794;28;93437;-51
2023/12/06 15:34:40;;;;;;;;;;;14.80;55.70;;;;;;10199297;28;94264;-50
2023/12/06 15:39:42;;;;;;;;;;;14.70;55.70;;;;;;10197658;28;96397;-51
2023/12/06 15:44:47;;;;;;;;;;;14.70;56.20;;;;;;10188084;28;93449;-48
2023/12/06 15:49:49;;;;;;;;;;;14.70;56.60;;;;;;10201949;28;94764;-47
2023/12/06 15:54:51;;;;;;;;;;;14.80;57.10;;;;;;10199055;28;94603;-49
2023/12/06 15:59:53;;;;;;;;;;;15.00;58.90;;;;;;10177789;28;93029;-47
2023/12/06 16:04:55;;;;;;;;;;;15.30;58.50;;;;;;10186746;28;94223;-49
2023/12/06 16:09:57;;;;;;;;;;;15.50;57.70;;;;;;10176644;28;94850;-48
2023/12/06 16:15:05;;;;;;;;;;;15.80;57.00;;;;;;10179963;28;93849;-47
2023/12/06 16:20:08;;;;;;;;;;;16.00;56.60;;;;;;10169417;28;94330;-50
2023/12/06 16:25:11;;;;;;;;;;;16.20;56.20;;;;;;10189657;28;94493;-48
2023/12/06 16:30:14;;;;;;;;;;;16.30;55.90;;;;;;10192446;28;96686;-50
2023/12/06 16:35:18;;;;;;;;;;;16.40;55.70;;;;;;10203426;28;93480;-47
2023/12/06 16:40:19;;;;;;;;;;;16.50;55.60;;;;;;10202424;28;94530;-46
2023/12/06 16:45:21;;;;;;;;;;;16.70;55.40;;;;;;10201719;28;93842;-46
2023/12/06 16:50:23;;;;;;;;;;;16.70;55.80;;;;;;10202628;28;94625;-46
2023/12/06 16:55:25;;;;;;;;;;;16.90;62.70;;;;;;10195127;28;94761;-49
2023/12/06 17:00:27;;;;;;;;;;;16.90;64.10;;;;;;10206646;28;92599;-48
2023/12/06 17:05:29;;;;;;;;;;;17.00;64.10;;;;;;10199927;28;93527;-48
2023/12/06 17:10:31;;;;;;;;;;;17.10;67.50;;;;;;10169875;28;93470;-49
2023/12/06 17:15:33;;;;;;;;;;;17.10;69.30;;;;;;10189660;28;93754;-50
2023/12/06 17:20:35;;;;;;;;;;;17.20;67.70;;;;;;10184651;28;96508;-51
2023/12/06 17:25:37;;;;;;;;;;;17.20;65.20;;;;;;10177096;28;94390;-51
2023/12/06 17:30:39;;;;;;;;;;;17.30;64.10;;;;;;10189087;28;93201;-49
2023/12/06 17:35:41;;;;;;;;;;;17.30;64.00;;;;;;10179313;28;94447;-51
2023/12/06 17:40:44;;;;;;;;;;;17.50;63.50;;;;;;10188192;28;96870;-49
2023/12/06 17:45:46;;;;;;;;;;;17.60;63.20;;;;;;10185941;28;93429;-49
2023/12/06 17:50:50;;;;;;;;;;;17.60;62.60;;;;;;10198589;28;94428;-52
2023/12/06 17:55:52;;;;;;;;;;;17.70;61.90;;;;;;10197584;28;93774;-50
2023/12/06 18:00:53;;;;;;;;;;;17.70;61.50;;;;;;10192057;28;93595;-52
2023/12/06 18:05:55;;;;;;;;;;;17.80;61.20;;;;;;10197516;28;93676;-51
2023/12/06 18:10:57;;;;;;;;;;;17.80;61.00;;;;;;10185712;28;96663;-53
2023/12/06 18:15:59;;;;;;;;;;;17.80;60.70;;;;;;10179563;28;94388;-51
2023/12/06 18:21:01;;;;;;;;;;;17.90;60.60;;;;;;10167009;28;93513;-51
2023/12/06 18:26:03;;;;;;;;;;;17.90;60.40;;;;;;10198132;28;93551;-49
2023/12/06 18:31:05;;;;;;;;;;;17.90;60.30;;;;;;10200718;28;94995;-52
2023/12/06 18:36:07;;;;;;;;;;;18.00;60.20;;;;;;10197852;28;94336;-52
2023/12/06 18:41:08;;;;;;;;;;;17.90;60.10;;;;;;10189510;28;94791;-48
2023/12/06 18:46:10;;;;;;;;;;;17.90;60.20;;;;;;10193518;28;92780;-52
2023/12/06 18:51:12;;;;;;;;;;;17.90;60.20;;;;;;10190999;28;94015;-51
2023/12/06 18:56:14;;;;;;;;;;;17.90;60.70;;;;;;10192612;28;93513;-52
2023/12/06 19:01:17;;;;;;;;;;;18.00;60.40;;;;;;10163977;28;97084;-51
2023/12/06 19:06:19;;;;;;;;;;;18.10;60.10;;;;;;10195265;28;93607;-49
2023/12/06 19:11:24;;;;;;;;;;;18.10;59.80;;;;;;10193287;28;94802;-48
2023/12/06 19:16:26;;;;;;;;;;;18.00;59.60;;;;;;10180005;28;94742;-50
2023/12/06 19:21:29;;;;;;;;;;;18.00;59.60;;;;;;10193432;28;94681;-53
2023/12/06 19:26:31;;;;;;;;;;;18.00;59.50;;;;;;10196574;28;93675;-52
2023/12/06 19:31:34;;;;;;;;;;;18.10;59.50;;;;;;10194663;28;93479;-53
2023/12/06 19:36:36;;;;;;;;;;;18.10;59.30;;;;;;10207985;28;92881;-53
2023/12/06 19:41:38;;;;;;;;;;;18.20;59.20;;;;;;10197412;28;93508;-51
2023/12/06 19:46:40;;;;;;;;;;;18.20;59.00;;;;;;10194373;28;95980;-52
2023/12/06 19:51:45;;;;;;;;;;;18.30;58.90;;;;;;10189457;28;96823;-47
2023/12/06 19:56:47;;;;;;;;;;;18.30;58.80;;;;;;10171232;28;94623;-50
2023/12/06 20:01:48;;;;;;;;;;;18.30;58.50;;;;;;10196047;28;93450;-48
2023/12/06 20:06:50;;;;;;;;;;;18.20;58.40;;;;;;10186957;28;97399;-51
2023/12/06 20:11:53;;;;;;;;;;;18.20;58.30;;;;;;10187525;28;93425;-47
2023/12/06 20:16:55;;;;;;;;;;;18.30;58.30;;;;;;10189031;28;94261;-52
2023/12/06 20:21:57;;;;;;;;;;;18.40;58.10;;;;;;10179673;28;94359;-50
2023/12/06 20:26:59;;;;;;;;;;;18.40;58.10;;;;;;10194878;28;94058;-50
2023/12/06 20:32:01;;;;;;;;;;;18.40;59.00;;;;;;10197871;28;93991;-51
2023/12/06 20:37:03;;;;;;;;;;;18.30;58.10;;;;;;10198383;28;94443;-50
2023/12/06 20:42:05;;;;;;;;;;;18.20;58.10;;;;;;10197062;28;97393;-51
2023/12/06 20:47:07;;;;;;;;;;;18.20;58.10;;;;;;10201520;28;93514;-52
2023/12/06 20:52:09;;;;;;;;;;;18.10;58.10;;;;;;10195890;28;93995;-51
2023/12/06 20:57:11;;;;;;;;;;;18.00;58.10;;;;;;10199215;28;93706;-52
2023/12/06 21:02:13;;;;;;;;;;;17.90;58.20;;;;;;10199460;28;93489;-50
2023/12/06 21:07:16;;;;;;;;;;;17.70;58.30;;;;;;10194942;28;93423;-52
2023/12/06 21:12:18;;;;;;;;;;;17.60;58.40;;;;;;10194929;28;93445;-50
2023/12/06 21:17:20;;;;;;;;;;;17.50;58.60;;;;;;10190468;28;92505;-51
2023/12/06 21:22:22;;;;;;;;;;;17.40;58.80;;;;;;10182491;28;94832;-51
2023/12/06 21:27:24;;;;;;;;;;;17.30;58.80;;;;;;10180564;28;93604;-51
2023/12/06 21:32:26;;;;;;;;;;;17.10;58.80;;;;;;10193369;28;96866;-53
2023/12/06 21:37:28;;;;;;;;;;;17.00;58.90;;;;;;10185312;28;94574;-50
2023/12/06 21:42:30;;;;;;;;;;;16.90;58.90;;;;;;10183197;28;93331;-52
2023/12/06 21:47:32;;;;;;;;;;;16.80;58.50;;;;;;10185713;28;93725;-48
2023/12/06 21:52:34;;;;;;;;;;;16.70;58.20;;;;;;10194989;28;94533;-48
2023/12/06 21:57:39;;;;;;;;;;;16.70;58.00;;;;;;10179697;28;93466;-47
2023/12/06 22:02:42;;;;;;;;;;;16.60;57.70;;;;;;10184071;28;93516;-52
2023/12/06 22:07:44;;;;;;;;;;;16.50;57.50;;;;;;10176236;28;93996;-52
2023/12/06 22:12:46;;;;;;;;;;;16.50;57.30;;;;;;10164875;28;93798;-51
2023/12/06 22:17:49;;;;;;;;;;;16.40;57.20;;;;;;10208880;28;93134;-48
2023/12/06 22:22:51;;;;;;;;;;;16.30;57.00;;;;;;10193160;28;95767;-50
2023/12/06 22:27:53;;;;;;;;;;;16.30;57.00;;;;;;10177975;28;94059;-51
2023/12/06 22:32:57;;;;;;;;;;;16.20;57.40;;;;;;10193148;28;112313;-47
2023/12/06 22:37:59;;;;;;;;;;;16.10;57.60;;;;;;10185839;28;94436;-48
2023/12/06 22:43:17;;;;;;;;;;;16.10;57.50;;;;;;10183649;28;94913;-49
2023/12/06 22:48:19;;;;;;;;;;;16.10;57.20;;;;;;10176110;28;93490;-49
2023/12/06 22:53:21;;;;;;;;;;;16.00;57.00;;;;;;10179168;28;93371;-50
2023/12/06 22:58:23;;;;;;;;;;;16.00;56.50;;;;;;10192028;28;94036;-48
2023/12/06 23:03:25;;;;;;;;;;;16.00;56.40;;;;;;10177683;28;94116;-51
2023/12/06 23:08:27;;;;;;;;;;;15.90;56.20;;;;;;10179808;28;94025;-51
2023/12/06 23:13:28;;;;;;;;;;;15.90;56.00;;;;;;10173861;28;95882;-51
2023/12/06 23:18:30;;;;;;;;;;;15.80;55.80;;;;;;10169478;28;93499;-53
2023/12/06 23:23:32;;;;;;;;;;;15.80;56.40;;;;;;10165990;28;94659;-50
2023/12/06 23:28:34;;;;;;;;;;;15.80;56.90;;;;;;10183595;28;94640;-53
2023/12/06 23:33:36;;;;;;;;;;;15.70;56.70;;;;;;10176374;28;93218;-52
2023/12/06 23:38:38;;;;;;;;;;;15.70;56.50;;;;;;10167525;28;93513;-51
2023/12/06 23:43:40;;;;;;;;;;;15.80;56.20;;;;;;10187266;28;93998;-52
2023/12/06 23:48:42;;;;;;;;;;;15.90;55.90;;;;;;10176799;28;93455;-47
2023/12/06 23:53:44;;;;;;;;;;;15.90;55.60;;;;;;10160951;28;93527;-50
2023/12/06 23:58:46;;;;;;;;;;;15.90;55.40;;;;;;10180151;28;93826;-50
